Time;durP1;ratioP1;P1;durP2;ratioP2;P2;SDS_P1;SDS_P2;PMS_P1;PMS_P2;Temp;Humidity;BMP_temperature;BMP_pressure;BME280_temperature;BME280_humidity;BME280_pressure;Samples;Min_cycle;Max_cycle;Signal;HPM_P1;HPM_P2
2021/01/10 00:01:17;;;;;;;40.10;23.37;;;3.60;72.90;;;;;;5012051;28;20788;-73
2021/01/10 00:03:43;;;;;;;37.17;22.33;;;3.70;75.80;;;;;;5012382;28;20397;-71
2021/01/10 00:06:09;;;;;;;44.33;24.03;;;4.00;70.50;;;;;;5017963;28;20388;-74
2021/01/10 00:08:35;;;;;;;42.00;23.27;;;3.80;71.10;;;;;;5014242;28;20420;-74
2021/01/10 00:11:00;;;;;;;43.92;24.60;;;3.80;69.90;;;;;;5014950;28;20409;-74
2021/01/10 00:13:26;;;;;;;46.55;25.40;;;3.60;73.40;;;;;;5010426;28;20426;-71
2021/01/10 00:15:51;;;;;;;44.53;24.60;;;3.40;75.90;;;;;;5011674;28;20764;-73
2021/01/10 00:18:17;;;;;;;45.10;25.10;;;3.30;77.30;;;;;;5015836;28;20396;-74
2021/01/10 00:20:42;;;;;;;44.60;23.70;;;3.20;77.90;;;;;;5014505;28;20427;-72
2021/01/10 00:23:09;;;;;;;36.87;22.73;;;3.40;79.70;;;;;;5013437;28;20401;-75
2021/01/10 00:25:34;;;;;;;37.63;22.05;;;3.60;72.90;;;;;;5014116;28;20747;-73
2021/01/10 00:28:00;;;;;;;37.90;21.93;;;3.80;71.70;;;;;;5014478;28;20399;-76
2021/01/10 00:30:26;;;;;;;44.13;23.08;;;3.90;69.30;;;;;;5014173;28;20412;-74
2021/01/10 00:32:54;;;;;;;42.37;23.53;;;3.80;69.00;;;;;;5013879;28;20397;-72
2021/01/10 00:35:21;;;;;;;43.90;23.20;;;3.80;69.50;;;;;;5012687;28;20408;-74
2021/01/10 00:37:49;;;;;;;39.87;22.30;;;3.70;70.90;;;;;;5014142;28;20401;-73
2021/01/10 00:40:15;;;;;;;41.40;22.70;;;3.70;70.90;;;;;;5016510;28;20893;-74
2021/01/10 00:42:45;;;;;;;44.65;23.10;;;3.70;72.40;;;;;;5015285;28;20409;-72
2021/01/10 00:45:12;;;;;;;40.67;23.63;;;3.70;70.90;;;;;;5017295;28;20883;-72
2021/01/10 00:47:37;;;;;;;42.58;24.10;;;3.60;72.20;;;;;;5016680;28;20385;-75
2021/01/10 00:50:04;;;;;;;42.67;24.45;;;3.60;73.50;;;;;;5015829;28;20905;-72
2021/01/10 00:52:30;;;;;;;40.08;23.50;;;3.60;74.20;;;;;;5016120;28;20783;-73
2021/01/10 00:54:56;;;;;;;44.70;24.98;;;3.60;73.20;;;;;;5015568;28;20453;-75
2021/01/10 00:57:21;;;;;;;44.60;25.87;;;3.50;75.80;;;;;;5016235;28;20466;-73
2021/01/10 00:59:47;;;;;;;48.23;26.60;;;3.50;74.90;;;;;;5014152;28;20404;-73
2021/01/10 01:02:13;;;;;;;49.40;26.48;;;3.30;77.80;;;;;;5011969;28;20391;-73
2021/01/10 01:04:39;;;;;;;45.38;25.70;;;3.20;80.90;;;;;;5012380;28;20393;-74
2021/01/10 01:07:05;;;;;;;44.80;25.13;;;3.50;80.00;;;;;;5011652;28;20391;-73
2021/01/10 01:09:30;;;;;;;39.88;24.23;;;3.50;77.70;;;;;;5011175;28;20839;-73
2021/01/10 01:11:56;;;;;;;42.87;24.30;;;3.50;77.10;;;;;;5012010;28;20455;-74
2021/01/10 01:14:21;;;;;;;42.57;24.13;;;3.50;76.60;;;;;;5000861;28;20418;-72
2021/01/10 01:16:47;;;;;;;47.53;24.57;;;3.40;75.50;;;;;;5002947;28;20747;-72
2021/01/10 01:19:13;;;;;;;44.20;25.10;;;3.50;77.20;;;;;;5010329;28;20420;-73
2021/01/10 01:21:39;;;;;;;42.88;24.60;;;3.60;74.60;;;;;;5011787;28;20393;-73
2021/01/10 01:24:05;;;;;;;43.85;25.48;;;3.70;73.50;;;;;;5012707;28;20888;-71
2021/01/10 01:26:30;;;;;;;44.42;23.83;;;3.50;74.70;;;;;;5015809;28;20451;-73
2021/01/10 01:28:56;;;;;;;41.40;24.23;;;3.40;75.20;;;;;;5016007;28;20388;-73
2021/01/10 01:31:25;;;;;;;41.45;24.58;;;3.40;76.60;;;;;;5015775;28;20905;-74
2021/01/10 01:33:51;;;;;;;43.55;24.42;;;3.30;78.20;;;;;;5015440;28;20424;-72
2021/01/10 01:36:23;;;;;;;43.58;23.77;;;3.30;76.30;;;;;;5006006;28;20402;-73
2021/01/10 01:38:50;;;;;;;38.50;23.48;;;3.50;76.80;;;;;;4994134;28;20386;-73
2021/01/10 01:41:15;;;;;;;45.42;24.52;;;3.70;70.50;;;;;;4994078;28;20395;-72
2021/01/10 01:43:41;;;;;;;41.77;23.93;;;3.50;72.70;;;;;;4995662;28;20754;-72
2021/01/10 01:46:09;;;;;;;36.10;22.20;;;3.50;76.30;;;;;;5013301;28;20393;-73
2021/01/10 01:48:41;;;;;;;43.90;22.65;;;3.70;73.00;;;;;;5012550;28;20428;-74
2021/01/10 01:51:07;;;;;;;41.20;22.42;;;3.80;70.80;;;;;;5013159;28;20412;-72
2021/01/10 01:53:33;;;;;;;43.65;22.88;;;3.70;69.20;;;;;;5012840;28;20476;-72
2021/01/10 01:55:59;;;;;;;43.47;24.70;;;3.40;72.10;;;;;;5013052;28;20412;-72
2021/01/10 01:58:26;;;;;;;38.72;23.58;;;3.20;75.40;;;;;;5013322;28;20389;-72
2021/01/10 02:00:53;;;;;;;39.85;23.77;;;3.10;78.60;;;;;;5012429;28;20471;-74
2021/01/10 02:03:30;;;;;;;41.55;23.10;;;3.30;80.30;;;;;;5012026;28;20389;-73
2021/01/10 02:06:01;;;;;;;37.75;22.13;;;3.50;72.90;;;;;;5012698;28;20389;-73
2021/01/10 02:08:30;;;;;;;38.55;22.63;;;3.60;71.10;;;;;;5012109;28;20408;-74
2021/01/10 02:11:00;;;;;;;39.43;22.70;;;3.40;72.10;;;;;;5012259;28;20408;-73
2021/01/10 02:13:30;;;;;;;40.03;23.38;;;3.40;75.90;;;;;;5010985;28;20406;-73
2021/01/10 02:15:56;;;;;;;43.33;24.52;;;3.30;73.80;;;;;;4993274;28;20390;-75
2021/01/10 02:18:22;;;;;;;43.40;24.58;;;3.00;76.10;;;;;;4991483;28;20386;-75
2021/01/10 02:20:48;;;;;;;46.67;23.10;;;2.80;78.80;;;;;;5002008;28;20487;-74
2021/01/10 02:23:24;;;;;;;43.95;23.23;;;2.90;82.50;;;;;;5010653;28;20420;-73
2021/01/10 02:25:50;;;;;;;42.35;23.63;;;3.30;76.90;;;;;;5010720;28;20902;-73
2021/01/10 02:28:20;;;;;;;42.15;24.23;;;3.30;72.20;;;;;;5010618;28;20758;-74
2021/01/10 02:30:45;;;;;;;43.17;24.13;;;3.10;74.70;;;;;;5010442;28;20882;-73
2021/01/10 02:33:32;;;;;;;45.50;24.40;;;3.00;77.30;;;;;;5010440;28;20396;-74
2021/01/10 02:36:03;;;;;;;48.30;24.98;;;2.90;79.30;;;;;;5017475;28;20495;-74
2021/01/10 02:38:44;;;;;;;45.92;24.77;;;2.90;81.00;;;;;;5017309;28;20385;-74
2021/01/10 02:41:40;;;;;;;45.80;25.67;;;3.00;78.80;;;;;;5017235;28;20392;-74
2021/01/10 02:44:20;;;;;;;43.77;24.90;;;3.00;77.90;;;;;;5017389;28;20504;-73
2021/01/10 02:46:50;;;;;;;48.70;23.48;;;3.00;77.60;;;;;;5016972;28;20479;-74
2021/01/10 02:49:16;;;;;;;40.90;23.55;;;2.90;78.80;;;;;;5016854;28;20495;-74
2021/01/10 02:51:42;;;;;;;39.50;22.38;;;2.90;80.30;;;;;;5017280;28;20811;-74
2021/01/10 02:54:07;;;;;;;43.17;24.48;;;2.80;81.50;;;;;;5017562;28;20798;-75
2021/01/10 02:56:45;;;;;;;44.60;22.02;;;3.00;83.00;;;;;;5017099;28;20381;-75
2021/01/10 02:59:13;;;;;;;36.65;22.30;;;3.10;82.90;;;;;;5017375;28;20400;-76
2021/01/10 03:01:40;;;;;;;36.63;22.33;;;3.40;80.00;;;;;;5016615;28;20483;-75
2021/01/10 03:04:07;;;;;;;41.72;22.27;;;3.30;79.50;;;;;;5017480;28;20444;-75
2021/01/10 03:06:33;;;;;;;39.10;21.77;;;3.30;77.80;;;;;;5016814;28;20748;-76
2021/01/10 03:08:59;;;;;;;37.40;22.30;;;3.30;77.10;;;;;;5016976;28;20423;-73
2021/01/10 03:11:25;;;;;;;43.97;23.50;;;3.30;76.60;;;;;;5016883;28;20401;-73
2021/01/10 03:13:50;;;;;;;36.50;21.97;;;3.10;76.70;;;;;;5016554;28;20885;-71
2021/01/10 03:16:16;;;;;;;39.33;21.85;;;2.90;77.30;;;;;;5016931;28;20384;-73
2021/01/10 03:18:42;;;;;;;35.72;20.17;;;2.90;76.80;;;;;;5016678;28;20389;-74
2021/01/10 03:21:08;;;;;;;40.43;21.23;;;2.80;78.70;;;;;;5017018;28;20741;-73
2021/01/10 03:23:33;;;;;;;37.20;22.20;;;2.90;76.30;;;;;;5016933;28;20888;-72
2021/01/10 03:25:59;;;;;;;41.03;21.95;;;2.60;76.80;;;;;;5017232;28;20947;-74
2021/01/10 03:28:24;;;;;;;44.88;23.25;;;2.40;79.30;;;;;;5016347;28;20400;-74
2021/01/10 03:30:50;;;;;;;37.95;21.50;;;2.20;80.70;;;;;;5016856;28;20886;-71
2021/01/10 03:33:15;;;;;;;45.60;24.30;;;2.10;82.70;;;;;;5016853;28;20425;-73
2021/01/10 03:35:41;;;;;;;40.87;22.90;;;2.00;84.10;;;;;;5017204;28;20400;-73
2021/01/10 03:38:07;;;;;;;38.45;22.17;;;2.40;87.30;;;;;;5017106;28;20473;-73
2021/01/10 03:40:33;;;;;;;49.90;25.08;;;2.40;85.30;;;;;;5016083;28;20405;-72
2021/01/10 03:42:58;;;;;;;40.90;23.03;;;2.30;85.90;;;;;;5016618;28;20391;-71
2021/01/10 03:45:24;;;;;;;41.08;23.85;;;2.30;87.30;;;;;;5014915;28;20823;-73
2021/01/10 03:47:49;;;;;;;43.85;22.90;;;2.30;88.40;;;;;;5014974;28;20866;-71
2021/01/10 03:50:16;;;;;;;44.45;23.90;;;2.30;89.00;;;;;;5014164;28;20818;-73
2021/01/10 03:52:41;;;;;;;46.42;23.15;;;2.30;88.60;;;;;;5014930;28;20388;-72
2021/01/10 03:55:08;;;;;;;42.83;22.13;;;2.40;88.90;;;;;;5020729;28;20392;-73
2021/01/10 03:57:37;;;;;;;41.17;22.92;;;2.30;87.80;;;;;;5021007;28;20381;-73
2021/01/10 04:00:07;;;;;;;37.28;22.23;;;2.30;87.50;;;;;;5015350;28;20393;-72
2021/01/10 04:02:33;;;;;;;47.10;24.30;;;2.20;87.80;;;;;;5014263;28;20416;-74
2021/01/10 04:04:59;;;;;;;40.40;23.30;;;2.20;87.90;;;;;;5015058;28;20413;-73
2021/01/10 04:07:25;;;;;;;42.22;24.20;;;2.10;88.20;;;;;;5014534;28;20878;-73
2021/01/10 04:09:51;;;;;;;50.13;27.10;;;2.00;89.20;;;;;;5011707;28;20423;-73
2021/01/10 04:12:16;;;;;;;44.75;24.98;;;2.00;90.00;;;;;;5015642;28;20747;-73
2021/01/10 04:14:42;;;;;;;50.17;28.00;;;2.10;91.80;;;;;;5001120;28;20398;-73
2021/01/10 04:17:07;;;;;;;48.92;26.65;;;2.20;92.60;;;;;;5005002;28;20393;-73
2021/01/10 04:19:33;;;;;;;50.23;27.17;;;2.30;92.70;;;;;;5012458;28;20901;-71
2021/01/10 04:21:58;;;;;;;52.50;27.93;;;2.30;92.30;;;;;;5012861;28;20384;-72
2021/01/10 04:24:24;;;;;;;49.10;27.07;;;2.30;91.60;;;;;;5012644;28;20442;-72
2021/01/10 04:26:50;;;;;;;56.57;28.17;;;2.30;91.00;;;;;;5017922;28;20957;-71
2021/01/10 04:29:19;;;;;;;52.75;28.80;;;2.30;90.60;;;;;;5017838;28;20388;-71
2021/01/10 04:31:51;;;;;;;53.33;28.35;;;2.30;90.20;;;;;;5017543;28;20487;-72
2021/01/10 04:34:17;;;;;;;57.22;28.65;;;2.40;90.50;;;;;;5018179;28;20435;-74
2021/01/10 04:36:43;;;;;;;46.20;26.83;;;2.50;90.80;;;;;;5016549;28;20381;-74
2021/01/10 04:39:08;;;;;;;42.97;24.90;;;2.60;90.20;;;;;;5018535;28;20926;-73
2021/01/10 04:41:34;;;;;;;47.33;27.42;;;2.80;88.30;;;;;;5017794;28;20448;-72
2021/01/10 04:44:00;;;;;;;44.55;26.40;;;2.70;86.50;;;;;;5017046;28;20739;-72
2021/01/10 04:46:30;;;;;;;51.53;27.25;;;2.70;87.10;;;;;;5019325;28;20460;-73
2021/01/10 04:48:56;;;;;;;49.60;28.30;;;3.00;84.00;;;;;;5019346;28;20385;-73
2021/01/10 04:51:25;;;;;;;55.88;31.33;;;3.40;79.70;;;;;;5019888;28;20408;-71
2021/01/10 04:53:53;;;;;;;58.78;30.75;;;3.20;77.30;;;;;;5018739;28;20389;-73
2021/01/10 04:56:19;;;;;;;69.15;33.58;;;3.10;78.40;;;;;;5016930;28;20455;-71
2021/01/10 04:58:52;;;;;;;74.43;36.27;;;3.00;79.20;;;;;;5015113;28;20393;-72
2021/01/10 05:01:25;;;;;;;67.50;35.05;;;3.00;79.90;;;;;;5013681;28;20430;-73
2021/01/10 05:03:54;;;;;;;70.53;36.70;;;3.00;80.50;;;;;;5015678;28;20458;-73
2021/01/10 05:06:21;;;;;;;78.60;40.00;;;3.00;78.90;;;;;;5015395;28;20413;-73
2021/01/10 05:08:47;;;;;;;80.22;39.83;;;3.00;77.50;;;;;;5016455;28;20420;-74
2021/01/10 05:11:15;;;;;;;88.27;41.07;;;2.90;77.70;;;;;;5014587;28;20417;-72
2021/01/10 05:13:40;;;;;;;81.10;40.65;;;2.90;78.50;;;;;;5010813;28;20387;-73
2021/01/10 05:16:06;;;;;;;78.93;39.70;;;2.80;77.90;;;;;;4996969;28;20823;-71
2021/01/10 05:18:32;;;;;;;71.37;36.97;;;2.80;78.30;;;;;;4996907;28;20868;-73
2021/01/10 05:20:57;;;;;;;76.73;38.70;;;2.90;78.40;;;;;;5008069;28;20432;-73
2021/01/10 05:23:27;;;;;;;82.00;39.17;;;2.90;78.60;;;;;;5020449;28;20427;-73
2021/01/10 05:26:06;;;;;;;87.43;40.57;;;2.90;78.90;;;;;;5018721;28;20479;-72
2021/01/10 05:28:33;;;;;;;80.40;39.45;;;2.80;78.70;;;;;;5019772;28;20381;-72
2021/01/10 05:31:00;;;;;;;82.07;40.13;;;2.70;79.10;;;;;;5018504;28;20495;-73
2021/01/10 05:33:26;;;;;;;82.67;39.67;;;2.80;77.90;;;;;;5019949;28;20408;-73
2021/01/10 05:35:53;;;;;;;84.25;39.95;;;2.80;78.20;;;;;;5020443;28;20411;-73
2021/01/10 05:38:31;;;;;;;88.40;39.65;;;2.70;77.40;;;;;;5014557;28;20407;-74
2021/01/10 05:40:59;;;;;;;83.10;40.13;;;2.70;77.60;;;;;;5013497;28;20467;-74
2021/01/10 05:43:25;;;;;;;78.87;37.90;;;2.70;79.20;;;;;;5012864;28;20392;-73
2021/01/10 05:45:51;;;;;;;80.32;37.28;;;2.70;80.00;;;;;;5013429;28;20545;-73
2021/01/10 05:48:18;;;;;;;67.47;36.03;;;2.70;80.10;;;;;;5012093;28;20409;-72
2021/01/10 05:50:45;;;;;;;72.87;35.50;;;2.80;80.40;;;;;;5011004;28;20472;-72
2021/01/10 05:53:23;;;;;;;68.35;34.35;;;3.00;78.10;;;;;;5010715;28;20471;-72
2021/01/10 05:55:55;;;;;;;67.18;35.25;;;2.90;76.90;;;;;;5010950;28;20423;-72
2021/01/10 05:58:23;;;;;;;64.70;32.97;;;2.80;76.70;;;;;;5011113;28;20460;-71
2021/01/10 06:00:51;;;;;;;65.43;33.80;;;2.80;77.50;;;;;;5011165;28;20408;-72
2021/01/10 06:03:19;;;;;;;61.97;32.13;;;2.80;78.30;;;;;;5011009;28;20447;-71
2021/01/10 06:05:58;;;;;;;59.95;31.27;;;2.80;77.90;;;;;;5010791;28;20424;-71
2021/01/10 06:08:33;;;;;;;54.70;29.38;;;2.70;78.40;;;;;;5010172;28;20408;-72
2021/01/10 06:11:18;;;;;;;63.85;32.63;;;2.70;79.20;;;;;;5012660;28;20901;-71
2021/01/10 06:13:51;;;;;;;55.05;28.70;;;2.70;79.20;;;;;;5010583;28;20394;-72
2021/01/10 06:16:17;;;;;;;58.57;30.70;;;2.80;81.00;;;;;;4996920;28;20433;-71
2021/01/10 06:18:50;;;;;;;56.80;30.23;;;2.80;78.20;;;;;;4997371;28;20795;-72
2021/01/10 06:21:20;;;;;;;50.90;28.20;;;2.80;78.80;;;;;;5012220;28;20806;-71
2021/01/10 06:23:49;;;;;;;54.60;29.02;;;2.80;78.40;;;;;;5013132;28;20400;-69
2021/01/10 06:26:19;;;;;;;53.47;29.73;;;2.70;78.90;;;;;;5011247;28;20431;-73
2021/01/10 06:28:51;;;;;;;59.88;31.17;;;2.70;79.10;;;;;;5015324;28;20392;-75
2021/01/10 06:31:22;;;;;;;57.72;29.92;;;2.70;79.40;;;;;;5016001;28;20412;-72
2021/01/10 06:33:54;;;;;;;52.47;28.60;;;2.70;79.10;;;;;;5014719;28;20392;-71
2021/01/10 06:36:22;;;;;;;56.00;28.48;;;2.80;78.10;;;;;;5014769;28;20400;-72
2021/01/10 06:38:52;;;;;;;50.28;27.67;;;2.90;77.00;;;;;;5012144;28;20408;-72
2021/01/10 06:41:51;;;;;;;56.43;29.77;;;2.80;77.90;;;;;;5014309;28;20384;-72
2021/01/10 06:44:19;;;;;;;53.30;29.57;;;2.90;77.60;;;;;;5011779;28;20393;-72
2021/01/10 06:46:53;;;;;;;52.45;28.17;;;2.90;77.90;;;;;;5013005;28;20377;-72
2021/01/10 06:49:20;;;;;;;60.00;30.92;;;2.80;78.10;;;;;;5012415;28;20381;-73
2021/01/10 06:51:47;;;;;;;55.00;29.48;;;2.60;78.80;;;;;;5012811;28;20424;-72
2021/01/10 06:54:13;;;;;;;64.60;30.98;;;2.60;79.80;;;;;;5013612;28;20393;-72
2021/01/10 06:56:46;;;;;;;63.78;32.85;;;2.70;79.60;;;;;;5016438;28;21051;-73
2021/01/10 06:59:12;;;;;;;61.67;33.08;;;2.70;79.80;;;;;;5016841;28;20380;-73
2021/01/10 07:01:50;;;;;;;57.38;29.77;;;2.60;80.60;;;;;;5015404;28;20508;-72
2021/01/10 07:04:22;;;;;;;57.00;30.40;;;2.70;80.60;;;;;;5015520;28;20373;-72
2021/01/10 07:06:52;;;;;;;59.80;30.88;;;2.70;80.70;;;;;;5013337;28;20397;-71
2021/01/10 07:09:18;;;;;;;59.75;30.73;;;2.70;80.90;;;;;;5011982;28;20377;-73
2021/01/10 07:11:45;;;;;;;61.37;31.10;;;2.70;81.30;;;;;;5013922;28;20472;-72
2021/01/10 07:14:14;;;;;;;54.05;30.20;;;2.70;81.20;;;;;;5006635;28;20386;-72
2021/01/10 07:16:44;;;;;;;54.95;30.40;;;2.80;80.60;;;;;;5010135;28;20397;-72
2021/01/10 07:19:13;;;;;;;59.97;31.02;;;2.70;80.70;;;;;;5009808;28;20746;-72
2021/01/10 07:21:47;;;;;;;54.65;29.80;;;2.90;79.70;;;;;;5011724;28;20395;-72
2021/01/10 07:24:13;;;;;;;56.03;29.55;;;3.10;78.80;;;;;;5013556;28;20407;-73
2021/01/10 07:26:43;;;;;;;58.00;29.80;;;3.00;74.90;;;;;;5014611;28;20738;-74
2021/01/10 07:29:28;;;;;;;59.83;29.42;;;2.90;75.90;;;;;;5012935;28;20397;-73
2021/01/10 07:32:04;;;;;;;59.00;28.70;;;2.80;78.20;;;;;;5014972;28;20393;-72
2021/01/10 07:34:31;;;;;;;58.10;30.17;;;2.80;79.10;;;;;;5015243;28;20403;-73
2021/01/10 07:36:58;;;;;;;59.28;30.60;;;2.70;79.90;;;;;;5014892;28;20874;-72
2021/01/10 07:39:26;;;;;;;65.72;32.38;;;2.70;80.60;;;;;;5014164;28;20416;-73
2021/01/10 07:42:13;;;;;;;53.38;29.20;;;2.70;81.10;;;;;;5014944;28;20812;-72
2021/01/10 07:44:57;;;;;;;60.17;32.78;;;2.80;82.40;;;;;;4995788;28;20394;-71
2021/01/10 07:47:31;;;;;;;63.58;33.00;;;3.00;78.60;;;;;;4995092;28;20733;-72
2021/01/10 07:49:59;;;;;;;64.32;31.75;;;2.90;79.50;;;;;;4993849;28;20489;-73
2021/01/10 07:52:45;;;;;;;74.68;33.42;;;2.90;79.90;;;;;;5010414;28;20833;-72
2021/01/10 07:55:20;;;;;;;63.28;32.58;;;2.90;80.10;;;;;;5012012;28;20507;-72
2021/01/10 07:58:01;;;;;;;67.17;33.03;;;2.80;80.50;;;;;;4993035;28;20469;-71
2021/01/10 08:00:49;;;;;;;67.18;33.80;;;2.80;81.00;;;;;;4992696;28;20772;-73
2021/01/10 08:03:23;;;;;;;66.00;33.95;;;2.90;80.80;;;;;;4993005;28;20395;-72
2021/01/10 08:05:55;;;;;;;67.30;33.55;;;3.00;80.10;;;;;;5005503;28;20393;-71
2021/01/10 08:08:30;;;;;;;61.42;32.25;;;3.00;76.90;;;;;;5012319;28;20389;-73
2021/01/10 08:10:56;;;;;;;65.22;32.33;;;3.10;76.20;;;;;;5012339;28;20409;-72
2021/01/10 08:13:38;;;;;;;61.20;32.20;;;3.10;76.00;;;;;;5009511;28;20484;-72
2021/01/10 08:16:09;;;;;;;67.18;34.72;;;3.10;76.70;;;;;;4992967;28;20401;-73
2021/01/10 08:18:36;;;;;;;61.75;31.92;;;3.10;76.00;;;;;;4998499;28;20393;-72
2021/01/10 08:21:04;;;;;;;60.72;32.55;;;3.10;76.40;;;;;;5012383;28;20403;-73
2021/01/10 08:23:31;;;;;;;65.15;32.67;;;3.30;75.70;;;;;;5012519;28;20496;-72
2021/01/10 08:26:07;;;;;;;64.65;32.58;;;3.40;73.50;;;;;;5012124;28;20524;-75
2021/01/10 08:28:53;;;;;;;61.53;32.97;;;3.30;74.20;;;;;;5011848;28;20894;-73
2021/01/10 08:31:22;;;;;;;62.53;32.80;;;3.30;74.00;;;;;;5011162;28;20550;-72
2021/01/10 08:33:56;;;;;;;62.95;32.78;;;3.30;74.70;;;;;;5009021;28;20397;-72
2021/01/10 08:36:22;;;;;;;67.40;34.28;;;3.40;75.00;;;;;;5011868;28;20385;-72
2021/01/10 08:38:51;;;;;;;72.70;35.67;;;3.40;73.90;;;;;;5011977;28;20388;-72
2021/01/10 08:41:30;;;;;;;64.97;33.22;;;3.30;75.20;;;;;;5011981;28;20395;-72
2021/01/10 08:43:58;;;;;;;69.07;35.08;;;3.30;75.60;;;;;;5011631;28;20886;-72
2021/01/10 08:46:25;;;;;;;67.00;34.60;;;3.40;75.10;;;;;;5011346;28;20870;-71
2021/01/10 08:48:51;;;;;;;74.65;37.25;;;3.40;75.40;;;;;;5011694;28;20381;-72
2021/01/10 08:51:33;;;;;;;101.80;44.83;;;3.40;75.90;;;;;;5011767;28;20769;-72
2021/01/10 08:54:00;;;;;;;72.50;37.22;;;3.50;75.80;;;;;;5011773;28;20403;-72
2021/01/10 08:56:26;;;;;;;72.18;36.40;;;3.50;76.40;;;;;;5012435;28;20392;-73
2021/01/10 08:58:56;;;;;;;74.53;36.75;;;3.60;75.90;;;;;;5009560;28;20895;-72
2021/01/10 09:01:23;;;;;;;74.05;36.25;;;3.60;74.70;;;;;;5017878;28;20431;-72
2021/01/10 09:04:16;;;;;;;83.35;35.97;;;3.60;73.80;;;;;;5013607;28;20395;-74
2021/01/10 09:06:45;;;;;;;75.53;36.58;;;3.70;72.80;;;;;;5009820;28;20393;-73
2021/01/10 09:09:46;;;;;;;69.40;36.50;;;3.70;72.60;;;;;;5011641;28;20416;-73
2021/01/10 09:12:47;;;;;;;79.23;37.53;;;3.70;70.80;;;;;;5012059;28;20424;-72
2021/01/10 09:15:31;;;;;;;79.15;38.97;;;3.80;72.20;;;;;;5009758;28;20412;-72
2021/01/10 09:18:02;;;;;;;73.38;35.60;;;3.80;71.40;;;;;;5014381;28;20392;-73
2021/01/10 09:21:01;;;;;;;85.63;39.85;;;4.00;69.90;;;;;;5010786;28;20396;-71
2021/01/10 09:23:27;;;;;;;73.80;37.60;;;3.90;69.80;;;;;;5007303;28;20417;-72
2021/01/10 09:25:53;;;;;;;76.97;38.22;;;4.00;70.40;;;;;;5011023;28;20431;-74
2021/01/10 09:28:20;;;;;;;77.35;37.35;;;4.00;70.10;;;;;;5010370;28;20396;-72
2021/01/10 09:30:54;;;;;;;92.40;40.15;;;3.90;68.90;;;;;;5010256;28;20587;-72
2021/01/10 09:33:30;;;;;;;81.05;37.28;;;4.00;69.70;;;;;;5011022;28;20475;-73
2021/01/10 09:36:01;;;;;;;68.00;36.20;;;4.00;69.60;;;;;;5010714;28;20428;-72
2021/01/10 09:38:31;;;;;;;81.07;35.67;;;3.90;69.80;;;;;;5010580;28;20373;-73
2021/01/10 09:41:04;;;;;;;76.30;36.72;;;4.00;69.80;;;;;;5011898;28;20405;-73
2021/01/10 09:43:43;;;;;;;78.97;37.63;;;4.00;68.10;;;;;;5012445;28;20728;-74
2021/01/10 09:46:37;;;;;;;69.47;34.85;;;4.00;68.70;;;;;;5012985;28;20971;-74
2021/01/10 09:49:07;;;;;;;76.03;35.90;;;4.20;66.70;;;;;;5012609;28;20411;-73
2021/01/10 09:52:00;;;;;;;72.38;36.22;;;4.20;67.20;;;;;;5012243;28;20861;-73
2021/01/10 09:54:27;;;;;;;73.53;36.25;;;4.20;67.90;;;;;;5012855;28;20404;-72
2021/01/10 09:56:55;;;;;;;76.53;36.00;;;4.20;67.60;;;;;;5012399;28;20483;-73
2021/01/10 09:59:46;;;;;;;74.28;36.10;;;4.20;68.40;;;;;;5011081;28;20400;-73
2021/01/10 10:02:25;;;;;;;74.82;35.35;;;4.30;67.90;;;;;;5011175;28;20524;-71
2021/01/10 10:05:07;;;;;;;77.93;37.70;;;4.60;66.20;;;;;;4993699;28;20402;-72
2021/01/10 10:07:41;;;;;;;69.32;35.53;;;4.60;65.30;;;;;;5005386;28;20400;-72
2021/01/10 10:10:16;;;;;;;72.70;35.60;;;4.60;65.90;;;;;;5012099;28;20423;-72
2021/01/10 10:12:58;;;;;;;65.47;33.90;;;4.60;63.60;;;;;;4998591;28;20408;-73
2021/01/10 10:15:35;;;;;;;66.82;33.55;;;4.60;63.50;;;;;;5012664;28;20389;-73
2021/01/10 10:18:00;;;;;;;67.45;33.53;;;4.70;61.30;;;;;;5012446;28;20401;-74
2021/01/10 10:20:26;;;;;;;62.03;32.75;;;4.80;61.20;;;;;;5012994;28;20403;-72
2021/01/10 10:22:51;;;;;;;68.22;34.67;;;4.80;61.00;;;;;;5013349;28;20404;-72
2021/01/10 10:25:17;;;;;;;70.70;36.33;;;4.80;61.10;;;;;;5011309;28;20438;-72
2021/01/10 10:27:59;;;;;;;72.80;36.20;;;4.90;60.90;;;;;;5014499;28;20401;-71
2021/01/10 10:30:25;;;;;;;78.97;36.53;;;4.90;61.20;;;;;;5011305;28;20405;-72
2021/01/10 10:32:51;;;;;;;72.40;36.72;;;4.90;61.30;;;;;;4994034;28;20405;-72
2021/01/10 10:35:17;;;;;;;88.43;40.33;;;4.90;61.60;;;;;;5012706;28;20424;-71
2021/01/10 10:37:43;;;;;;;84.28;38.70;;;4.90;62.20;;;;;;5013269;28;20397;-72
2021/01/10 10:40:09;;;;;;;80.13;39.33;;;4.90;62.40;;;;;;5012709;28;20934;-71
2021/01/10 10:42:35;;;;;;;87.03;40.97;;;4.90;62.20;;;;;;5013362;28;20787;-71
2021/01/10 10:45:00;;;;;;;94.53;41.17;;;5.00;61.90;;;;;;5013014;28;20435;-75
2021/01/10 10:47:26;;;;;;;78.67;39.23;;;5.00;62.70;;;;;;5011280;28;20428;-73
2021/01/10 10:49:51;;;;;;;70.23;37.87;;;5.00;62.50;;;;;;5011653;28;20420;-72
2021/01/10 10:52:17;;;;;;;79.33;37.70;;;5.00;61.80;;;;;;5009836;28;20406;-71
2021/01/10 10:54:42;;;;;;;74.37;38.20;;;5.20;61.20;;;;;;5012793;28;20400;-71
2021/01/10 10:57:09;;;;;;;82.30;37.93;;;5.20;60.50;;;;;;5019723;28;20399;-71
2021/01/10 10:59:37;;;;;;;71.00;36.20;;;5.20;59.70;;;;;;5018942;28;20919;-71
2021/01/10 11:02:03;;;;;;;72.00;36.63;;;5.30;59.60;;;;;;5005393;28;20391;-71
2021/01/10 11:04:28;;;;;;;65.88;34.53;;;5.40;58.40;;;;;;5001814;28;20409;-72
2021/01/10 11:06:54;;;;;;;66.47;33.15;;;5.40;57.50;;;;;;5018502;28;20404;-72
2021/01/10 11:09:20;;;;;;;63.72;33.15;;;5.50;57.90;;;;;;5014317;28;20719;-74
2021/01/10 11:11:47;;;;;;;58.75;30.42;;;5.40;57.80;;;;;;5014572;28;20850;-72
2021/01/10 11:14:14;;;;;;;60.42;31.02;;;5.40;55.30;;;;;;5004944;28;20397;-72
2021/01/10 11:16:43;;;;;;;65.43;33.22;;;5.40;55.70;;;;;;5014009;28;20408;-73
2021/01/10 11:19:11;;;;;;;61.50;31.17;;;5.40;56.80;;;;;;5014013;28;20412;-72
2021/01/10 11:21:38;;;;;;;61.25;30.15;;;5.50;57.10;;;;;;5013413;28;20408;-72
2021/01/10 11:24:04;;;;;;;60.28;30.13;;;5.70;56.40;;;;;;5006643;28;20897;-73
2021/01/10 11:26:31;;;;;;;53.78;29.35;;;5.70;55.10;;;;;;5012653;28;20419;-73
2021/01/10 11:28:56;;;;;;;55.63;29.45;;;5.70;53.70;;;;;;5013148;28;20393;-72
2021/01/10 11:31:24;;;;;;;53.57;28.70;;;5.70;53.80;;;;;;5013652;28;20412;-72
2021/01/10 11:33:50;;;;;;;55.60;30.35;;;5.80;53.80;;;;;;5003639;28;20788;-72
2021/01/10 11:36:16;;;;;;;55.28;30.27;;;5.90;53.30;;;;;;5004809;28;20401;-72
2021/01/10 11:38:42;;;;;;;53.78;29.15;;;5.80;52.90;;;;;;5012792;28;20400;-73
2021/01/10 11:41:10;;;;;;;53.42;28.42;;;5.80;53.60;;;;;;5014109;28;20717;-73
2021/01/10 11:43:37;;;;;;;44.15;23.17;;;5.80;52.60;;;;;;5009016;28;20440;-73
2021/01/10 11:46:07;;;;;;;41.37;23.13;;;5.80;49.50;;;;;;5006881;28;20386;-71
2021/01/10 11:48:33;;;;;;;43.00;23.17;;;5.80;48.80;;;;;;5014683;28;20396;-72
2021/01/10 11:51:01;;;;;;;44.55;24.00;;;5.90;48.30;;;;;;5012319;28;20413;-75
2021/01/10 11:53:26;;;;;;;45.75;24.33;;;5.90;48.10;;;;;;5012709;28;20400;-72
2021/01/10 11:55:52;;;;;;;45.17;24.50;;;6.00;48.10;;;;;;5013184;28;20773;-73
2021/01/10 11:58:20;;;;;;;43.15;24.42;;;6.00;48.10;;;;;;5012873;28;20393;-72
2021/01/10 12:00:50;;;;;;;42.47;22.63;;;6.10;47.10;;;;;;5012381;28;20398;-72
2021/01/10 12:03:16;;;;;;;46.47;24.58;;;6.00;47.10;;;;;;5012945;28;20895;-72
2021/01/10 12:05:41;;;;;;;42.07;22.77;;;6.00;47.30;;;;;;5011791;28;20830;-71
2021/01/10 12:08:07;;;;;;;40.22;23.17;;;6.00;48.70;;;;;;5011620;28;20555;-72
2021/01/10 12:10:34;;;;;;;45.55;23.30;;;6.00;48.10;;;;;;5011945;28;20413;-73
2021/01/10 12:13:02;;;;;;;47.55;23.75;;;6.00;48.90;;;;;;5012751;28;20386;-73
2021/01/10 12:15:28;;;;;;;44.65;24.23;;;6.10;47.70;;;;;;5010856;28;20391;-73
2021/01/10 12:17:54;;;;;;;41.63;23.73;;;6.00;49.20;;;;;;5010909;28;20902;-72
2021/01/10 12:20:19;;;;;;;46.83;26.30;;;5.90;50.50;;;;;;5011920;28;20455;-71
2021/01/10 12:22:45;;;;;;;44.00;26.50;;;5.90;49.90;;;;;;5011778;28;20389;-71
2021/01/10 12:25:11;;;;;;;49.70;27.33;;;5.80;51.10;;;;;;5011415;28;20403;-71
2021/01/10 12:27:37;;;;;;;47.90;26.50;;;5.80;50.60;;;;;;5011867;28;20831;-71
2021/01/10 12:30:04;;;;;;;46.90;25.87;;;5.70;50.60;;;;;;5011746;28;20491;-72
2021/01/10 12:32:35;;;;;;;44.30;26.27;;;5.50;51.60;;;;;;4992045;28;20397;-71
2021/01/10 12:35:02;;;;;;;56.63;26.85;;;5.30;52.70;;;;;;4992352;28;20391;-71
2021/01/10 12:37:28;;;;;;;46.35;26.98;;;5.20;53.70;;;;;;5011557;28;20462;-71
2021/01/10 12:39:53;;;;;;;48.20;25.47;;;5.10;53.50;;;;;;5012091;28;20389;-73
2021/01/10 12:42:19;;;;;;;50.40;25.83;;;5.10;53.50;;;;;;5011623;28;20404;-71
2021/01/10 12:44:44;;;;;;;46.63;24.90;;;5.00;54.40;;;;;;5007547;28;20450;-72
2021/01/10 12:47:10;;;;;;;43.53;25.40;;;5.00;55.30;;;;;;5006730;28;20455;-72